Terminal Aerodrome Forecast
Issued by NWS Sioux Falls, SD

Home | Current Version | Previous Version | Text Only | Print | Product List | Glossary On
Versions: 1 2 3 4 5 6 7 8 9 10 11 12
124
FTUS43 KFSD 292325
TAFHON
TAF
KHON 292325Z 3000/3024 05013KT P6SM BKN250
     FM300200 06009KT P6SM BKN200
     FM300500 06005KT P6SM BKN140
     FM301200 03009KT P6SM BKN100
     FM301500 03015G23KT P6SM VCSH BKN070
     FM301900 03021G29KT P6SM -RA OVC050
     FM302300 02020G28KT 6SM -RA OVC025=

USA.gov is the U.S. government's official web portal to all federal, state and local government web resources and services.